Time;durP1;ratioP1;P1;durP2;ratioP2;P2;SDS_P1;SDS_P2;PMS_P1;PMS_P2;Temp;Humidity;BMP_temperature;BMP_pressure;BME280_temperature;BME280_humidity;BME280_pressure;Samples;Min_cycle;Max_cycle;Signal;HPM_P1;HPM_P2
2022/03/29 00:00:04;;;;;;;24.88;16.42;;;;;;;8.08;92.31;100802.88;682394;28;1234;-76
2022/03/29 00:00:33;;;;;;;24.05;16.35;;;;;;;8.02;92.85;100807.16;683172;28;1412;-77
2022/03/29 00:00:53;;;;;;;24.40;15.88;;;;;;;8.01;92.81;100809.75;684122;28;1549;-76
2022/03/29 00:01:14;;;;;;;25.07;16.00;;;;;;;8.05;91.00;100808.06;683517;28;1674;-76
2022/03/29 00:01:34;;;;;;;22.27;15.70;;;;;;;8.12;91.18;100805.50;682786;28;1459;-77
2022/03/29 00:01:56;;;;;;;23.67;15.43;;;;;;;8.25;90.25;100805.59;682089;28;1727;-77
2022/03/29 00:02:16;;;;;;;23.65;15.55;;;;;;;8.33;89.51;100807.41;677779;28;1376;-77
2022/03/29 00:02:36;;;;;;;21.90;15.03;;;;;;;8.38;90.06;100803.94;680354;28;1376;-77
2022/03/29 00:02:57;;;;;;;22.58;15.57;;;;;;;8.35;90.12;100799.59;683466;28;4286;-77
2022/03/29 00:03:17;;;;;;;23.00;15.80;;;;;;;8.28;91.56;100805.59;681835;28;1336;-77
2022/03/29 00:03:38;;;;;;;24.30;15.80;;;;;;;8.21;91.92;100804.72;681889;28;1511;-77
2022/03/29 00:03:58;;;;;;;25.87;16.37;;;;;;;8.18;92.10;100805.56;681032;28;1919;-77
2022/03/29 00:04:18;;;;;;;26.30;16.60;;;;;;;8.15;91.93;100797.69;680858;28;1845;-76
2022/03/29 00:04:39;;;;;;;26.02;16.45;;;;;;;8.14;92.09;100809.00;677635;28;1479;-77
2022/03/29 00:05:04;;;;;;;26.17;16.47;;;;;;;8.11;91.85;100805.50;680940;28;941;-76
2022/03/29 00:05:24;;;;;;;23.98;15.77;;;;;;;8.16;90.76;100798.59;677946;28;1421;-77
2022/03/29 00:05:44;;;;;;;22.75;15.18;;;;;;;8.24;89.54;100798.63;676913;28;4313;-77
2022/03/29 00:06:05;;;;;;;23.40;15.07;;;;;;;8.30;89.95;100801.28;678339;28;1201;-77
2022/03/29 00:06:25;;;;;;;22.42;15.05;;;;;;;8.32;90.76;100800.44;678973;28;2206;-76
2022/03/29 00:06:46;;;;;;;24.37;15.53;;;;;;;8.27;92.03;100799.53;679707;28;930;-77
2022/03/29 00:07:06;;;;;;;23.33;15.43;;;;;;;8.23;92.19;100799.53;680535;28;1458;-76
2022/03/29 00:07:27;;;;;;;24.93;16.40;;;;;;;8.21;90.58;100796.91;685773;28;1274;-77
2022/03/29 00:07:47;;;;;;;24.10;15.88;;;;;;;8.30;90.43;100801.28;684730;28;928;-78
2022/03/29 00:08:08;;;;;;;23.97;15.07;;;;;;;8.38;89.72;100802.22;686328;28;1361;-76
2022/03/29 00:08:28;;;;;;;23.58;15.50;;;;;;;8.38;91.11;100801.31;682573;28;1504;-77
2022/03/29 00:08:48;;;;;;;24.50;16.17;;;;;;;8.32;91.36;100799.56;682518;28;4432;-77
2022/03/29 00:09:09;;;;;;;25.33;16.00;;;;;;;8.28;91.56;100800.41;683394;28;1860;-77
2022/03/29 00:09:29;;;;;;;25.57;16.53;;;;;;;8.24;91.72;100798.63;681346;28;1639;-76
2022/03/29 00:09:52;;;;;;;24.35;15.68;;;;;;;8.20;92.25;100802.97;683017;28;1469;-77
2022/03/29 00:10:13;;;;;;;27.13;16.10;;;;;;;8.17;90.68;100801.22;677496;28;1223;-77
2022/03/29 00:10:34;;;;;;;22.80;15.87;;;;;;;8.24;90.77;100796.03;676466;29;1145;-77
2022/03/29 00:10:54;;;;;;;20.90;14.37;;;;;;;8.33;90.29;100793.50;682548;28;1755;-76
2022/03/29 00:11:17;;;;;;;23.52;15.15;;;;;;;8.40;88.68;100797.00;681334;28;1533;-76
2022/03/29 00:11:40;;;;;;;23.30;15.18;;;;;;;8.39;90.47;100795.25;680352;28;1333;-77
2022/03/29 00:12:01;;;;;;;24.55;15.65;;;;;;;8.33;91.51;100796.09;677488;29;6293;-77
2022/03/29 00:12:21;;;;;;;24.38;15.75;;;;;;;8.28;91.30;100790.88;678565;29;1292;-76
2022/03/29 00:12:42;;;;;;;21.70;15.97;;;;;;;8.26;91.61;100799.53;680780;28;1425;-76
2022/03/29 00:13:02;;;;;;;22.27;16.10;;;;;;;8.23;91.60;100794.31;683131;28;1460;-76
2022/03/29 00:13:23;;;;;;;25.10;16.67;;;;;;;8.20;90.64;100797.75;683933;28;1317;-77
2022/03/29 00:13:44;;;;;;;24.27;15.77;;;;;;;8.23;89.90;100792.56;683264;28;4026;-77
2022/03/29 00:14:06;;;;;;;24.85;16.20;;;;;;;8.21;91.99;100799.50;684115;28;1352;-77
2022/03/29 00:14:26;;;;;;;25.80;16.15;;;;;;;8.13;92.15;100789.03;679779;28;1434;-76
2022/03/29 00:14:46;;;;;;;24.53;15.83;;;;;;;8.09;92.28;100795.06;680534;28;4306;-76
2022/03/29 00:15:07;;;;;;;26.20;16.50;;;;;;;8.07;92.53;100793.31;682324;28;1165;-77
2022/03/29 00:15:31;;;;;;;26.08;16.50;;;;;;;8.04;92.11;100791.53;683558;28;1322;-77
2022/03/29 00:15:51;;;;;;;26.33;16.15;;;;;;;8.03;92.04;100797.63;683181;28;1318;-77
2022/03/29 00:16:11;;;;;;;22.63;15.80;;;;;;;7.99;92.32;100799.34;682295;28;1749;-77
2022/03/29 00:16:32;;;;;;;24.13;16.07;;;;;;;8.05;91.08;100798.50;679492;28;1565;-77
2022/03/29 00:16:53;;;;;;;23.58;15.50;;;;;;;8.17;90.85;100792.53;682758;28;1316;-76
2022/03/29 00:17:13;;;;;;;23.57;15.10;;;;;;;8.22;91.48;100789.94;678459;28;1600;-75
2022/03/29 00:17:34;;;;;;;24.47;15.63;;;;;;;8.19;92.60;100794.25;679627;28;1256;-76
2022/03/29 00:17:54;;;;;;;24.43;16.13;;;;;;;8.15;92.91;100792.50;678474;28;4293;-75
2022/03/29 00:18:15;;;;;;;22.27;15.35;;;;;;;8.14;91.45;100798.59;682445;28;1314;-76
2022/03/29 00:18:35;;;;;;;23.55;15.75;;;;;;;8.11;91.32;100789.88;681482;28;1843;-76
2022/03/29 00:18:55;;;;;;;23.47;15.73;;;;;;;8.08;92.46;100790.72;681867;28;1345;-76
2022/03/29 00:19:16;;;;;;;27.33;16.03;;;;;;;8.07;92.27;100795.91;682962;28;1113;-76
2022/03/29 00:19:36;;;;;;;25.85;16.10;;;;;;;8.03;93.09;100797.63;682935;28;1293;-76
2022/03/29 00:19:57;;;;;;;24.50;15.80;;;;;;;7.99;92.93;100795.88;685205;28;1461;-76
2022/03/29 00:20:19;;;;;;;25.17;16.08;;;;;;;7.97;91.95;100792.38;683039;28;1406;-76
2022/03/29 00:20:40;;;;;;;24.13;15.90;;;;;;;8.01;91.65;100795.00;683911;28;1355;-76
2022/03/29 00:21:00;;;;;;;21.47;15.23;;;;;;;8.12;90.99;100797.69;682928;28;4488;-76
2022/03/29 00:21:21;;;;;;;21.40;15.18;;;;;;;8.17;91.09;100793.41;685427;28;1341;-76
2022/03/29 00:21:42;;;;;;;23.02;15.52;;;;;;;8.16;90.89;100790.78;682228;28;1276;-76
2022/03/29 00:22:03;;;;;;;25.45;16.20;;;;;;;8.12;91.89;100795.09;683540;28;1369;-75
2022/03/29 00:22:24;;;;;;;26.37;16.30;;;;;;;8.09;92.59;100791.59;679720;28;1510;-76
2022/03/29 00:22:47;;;;;;;25.40;16.13;;;;;;;8.07;92.54;100794.19;680606;28;1425;-76
2022/03/29 00:23:08;;;;;;;24.27;15.48;;;;;;;8.07;92.16;100793.31;681646;28;1037;-76
2022/03/29 00:23:28;;;;;;;22.03;15.17;;;;;;;8.05;91.89;100795.91;678587;29;1108;-76
2022/03/29 00:23:49;;;;;;;24.40;15.47;;;;;;;8.01;92.39;100788.94;677608;28;4475;-76
2022/03/29 00:24:09;;;;;;;25.58;16.17;;;;;;;7.99;93.06;100788.06;679281;28;1397;-76
2022/03/29 00:24:30;;;;;;;23.97;15.87;;;;;;;7.99;92.24;100793.28;680730;28;1666;-76
2022/03/29 00:24:50;;;;;;;23.15;15.02;;;;;;;8.02;92.38;100788.06;681466;28;970;-75
2022/03/29 00:25:11;;;;;;;24.58;15.73;;;;;;;8.09;91.68;100786.41;683954;28;1594;-76
2022/03/29 00:25:32;;;;;;;24.37;15.47;;;;;;;8.11;91.62;100795.06;686916;28;1246;-75
2022/03/29 00:25:52;;;;;;;23.85;15.60;;;;;;;8.08;92.52;100784.66;685387;28;1594;-76
2022/03/29 00:26:14;;;;;;;23.93;15.83;;;;;;;8.04;93.47;100790.69;684102;28;1686;-76
2022/03/29 00:26:34;;;;;;;25.15;15.95;;;;;;;7.98;92.93;100794.97;683119;28;932;-76
2022/03/29 00:26:55;;;;;;;24.92;15.60;;;;;;;7.97;93.25;100787.16;683307;28;4451;-76
2022/03/29 00:27:16;;;;;;;24.30;15.60;;;;;;;7.96;93.25;100785.41;684381;28;1497;-76
2022/03/29 00:27:38;;;;;;;23.20;15.73;;;;;;;7.93;93.30;100783.66;684292;28;1456;-76
2022/03/29 00:27:58;;;;;;;22.40;15.45;;;;;;;7.93;93.38;100788.00;685386;28;1574;-76
2022/03/29 00:28:18;;;;;;;24.75;15.68;;;;;;;7.93;92.72;100785.38;681732;28;1349;-76
2022/03/29 00:28:39;;;;;;;25.23;16.20;;;;;;;7.92;93.26;100789.75;681515;28;4823;-76
2022/03/29 00:28:59;;;;;;;24.67;16.20;;;;;;;7.90;93.31;100781.03;682230;28;1265;-76
2022/03/29 00:29:19;;;;;;;24.73;16.57;;;;;;;7.90;92.93;100785.38;683726;28;1346;-76
2022/03/29 00:29:40;;;;;;;24.80;16.13;;;;;;;7.90;92.82;100780.16;684252;28;1208;-76
2022/03/29 00:30:00;;;;;;;24.65;16.02;;;;;;;7.94;92.34;100787.16;679475;28;4295;-75
2022/03/29 00:30:21;;;;;;;24.30;15.77;;;;;;;7.95;92.97;100781.09;682146;28;1279;-75
2022/03/29 00:30:42;;;;;;;24.63;15.68;;;;;;;7.92;93.78;100789.75;678979;28;1606;-76
2022/03/29 00:31:02;;;;;;;24.55;15.85;;;;;;;7.94;93.13;100781.94;677722;29;1353;-75
2022/03/29 00:31:23;;;;;;;24.33;16.03;;;;;;;7.91;93.62;100777.56;680552;28;1382;-76
2022/03/29 00:31:43;;;;;;;24.25;16.25;;;;;;;7.90;93.77;100780.16;684122;28;1292;-76
2022/03/29 00:32:04;;;;;;;22.93;15.80;;;;;;;7.86;93.70;100779.25;686568;28;1397;-76
2022/03/29 00:32:24;;;;;;;24.63;16.38;;;;;;;7.84;94.09;100776.66;686864;28;1152;-76
2022/03/29 00:32:45;;;;;;;25.58;16.42;;;;;;;7.82;94.00;100778.38;681084;28;4300;-76
2022/03/29 00:33:06;;;;;;;27.30;16.75;;;;;;;7.79;94.23;100777.47;680766;28;1429;-76
2022/03/29 00:33:26;;;;;;;26.13;16.43;;;;;;;7.78;94.32;100780.94;683107;28;1347;-76
2022/03/29 00:33:47;;;;;;;24.67;15.87;;;;;;;7.75;94.02;100775.69;681322;28;1712;-75
2022/03/29 00:34:08;;;;;;;25.60;16.35;;;;;;;7.72;94.07;100773.94;683550;28;1699;-76
2022/03/29 00:34:28;;;;;;;25.47;16.73;;;;;;;7.70;93.98;100778.28;680183;28;1497;-76
2022/03/29 00:34:49;;;;;;;24.27;16.60;;;;;;;7.73;93.25;100773.09;679611;28;1080;-76
2022/03/29 00:35:10;;;;;;;23.77;15.77;;;;;;;7.77;92.73;100774.84;682077;28;1346;-76
2022/03/29 00:35:30;;;;;;;24.45;15.82;;;;;;;7.81;92.73;100776.63;682684;28;1216;-76
2022/03/29 00:35:51;;;;;;;23.40;14.97;;;;;;;7.89;92.18;100775.81;683708;28;4457;-76
2022/03/29 00:36:11;;;;;;;23.45;15.38;;;;;;;7.97;91.40;100775.00;687148;28;1588;-76
2022/03/29 00:36:32;;;;;;;25.00;15.47;;;;;;;8.00;92.62;100780.25;685421;28;1558;-75
2022/03/29 00:36:53;;;;;;;24.20;15.40;;;;;;;7.99;93.25;100772.44;685145;28;1393;-76
2022/03/29 00:37:13;;;;;;;25.00;16.30;;;;;;;7.94;93.43;100772.38;680398;28;1610;-76
2022/03/29 00:37:34;;;;;;;24.27;15.87;;;;;;;7.90;93.54;100775.81;681181;28;1452;-76
2022/03/29 00:37:56;;;;;;;26.13;15.93;;;;;;;7.86;93.78;100775.78;683655;28;1389;-76
2022/03/29 00:38:16;;;;;;;26.60;16.33;;;;;;;7.81;93.23;100775.78;681870;28;1247;-76
2022/03/29 00:38:37;;;;;;;24.73;16.30;;;;;;;7.79;93.64;100774.88;678695;28;1452;-76
2022/03/29 00:38:57;;;;;;;25.33;16.07;;;;;;;7.77;92.89;100772.25;682018;28;4460;-76
2022/03/29 00:39:18;;;;;;;24.70;16.17;;;;;;;7.78;93.82;100771.41;683089;28;1171;-76
2022/03/29 00:39:38;;;;;;;24.70;16.00;;;;;;;7.77;93.82;100774.84;685740;28;1452;-76
2022/03/29 00:39:59;;;;;;;26.95;16.42;;;;;;;7.76;93.81;100767.03;686802;28;1636;-76
2022/03/29 00:40:19;;;;;;;24.93;16.23;;;;;;;7.75;94.21;100773.97;691148;28;1396;-75
2022/03/29 00:40:39;;;;;;;22.77;15.95;;;;;;;7.73;94.24;100767.03;687385;28;1333;-76
2022/03/29 00:41:01;;;;;;;24.13;15.97;;;;;;;7.71;94.39;100774.78;684991;28;1403;-76
2022/03/29 00:41:22;;;;;;;24.83;16.17;;;;;;;7.67;94.40;100773.06;685536;28;1346;-76
2022/03/29 00:41:42;;;;;;;25.02;16.50;;;;;;;7.65;94.78;100770.41;684257;28;4288;-76
2022/03/29 00:42:03;;;;;;;23.67;16.03;;;;;;;7.66;94.97;100771.28;683388;28;1221;-76
2022/03/29 00:42:24;;;;;;;24.88;15.88;;;;;;;7.64;95.37;100770.41;683053;28;1608;-76
2022/03/29 00:42:44;;;;;;;27.60;16.27;;;;;;;7.61;95.06;100773.84;682207;28;1497;-76
2022/03/29 00:43:08;;;;;;;27.17;16.60;;;;;;;7.61;95.00;100770.38;684609;28;1503;-76
2022/03/29 00:43:29;;;;;;;24.02;16.05;;;;;;;7.63;94.86;100766.06;681952;28;1654;-75
2022/03/29 00:43:49;;;;;;;27.80;15.93;;;;;;;7.62;95.21;100769.53;684757;28;1972;-76
2022/03/29 00:44:09;;;;;;;26.43;16.50;;;;;;;7.59;95.34;100772.97;683017;28;1156;-76
2022/03/29 00:44:31;;;;;;;24.60;16.07;;;;;;;7.60;94.86;100768.63;681180;28;1801;-76
2022/03/29 00:44:53;;;;;;;25.13;16.38;;;;;;;7.62;95.21;100769.53;676126;29;4436;-75
2022/03/29 00:45:13;;;;;;;25.40;16.60;;;;;;;7.59;95.15;100765.16;678377;28;1350;-76
2022/03/29 00:45:33;;;;;;;24.63;15.85;;;;;;;7.57;95.30;100761.66;676895;29;1730;-75
2022/03/29 00:45:54;;;;;;;24.50;15.73;;;;;;;7.55;95.32;100767.72;677154;29;1342;-76
2022/03/29 00:46:14;;;;;;;25.42;16.13;;;;;;;7.56;94.06;100772.06;679645;29;1269;-76
2022/03/29 00:46:35;;;;;;;24.57;15.53;;;;;;;7.62;94.04;100769.53;682061;28;1118;-76
2022/03/29 00:46:56;;;;;;;22.63;15.07;;;;;;;7.65;94.26;100765.19;682944;28;1508;-75
2022/03/29 00:47:16;;;;;;;23.63;15.73;;;;;;;7.66;94.08;100766.94;681563;28;1308;-76
2022/03/29 00:47:36;;;;;;;23.23;15.75;;;;;;;7.65;94.19;100770.41;679574;28;1176;-75
2022/03/29 00:47:57;;;;;;;23.57;15.87;;;;;;;7.64;94.06;100765.19;679062;28;4438;-76
2022/03/29 00:48:17;;;;;;;25.00;15.90;;;;;;;7.61;94.88;100766.03;679665;28;1646;-76
2022/03/29 00:48:38;;;;;;;25.97;16.00;;;;;;;7.57;94.98;100766.00;682544;28;1521;-76
2022/03/29 00:48:58;;;;;;;22.95;15.63;;;;;;;7.55;95.36;100768.59;680524;28;1459;-75
2022/03/29 00:49:19;;;;;;;25.43;15.60;;;;;;;7.53;95.52;100767.69;676910;29;1383;-76
2022/03/29 00:49:39;;;;;;;24.88;16.30;;;;;;;7.55;93.74;100767.72;675959;28;1450;-76
2022/03/29 00:49:59;;;;;;;23.93;15.47;;;;;;;7.58;93.63;100759.94;681031;28;1355;-76
2022/03/29 00:50:20;;;;;;;24.20;15.57;;;;;;;7.57;95.33;100760.78;678180;28;1254;-76
2022/03/29 00:50:42;;;;;;;25.88;15.88;;;;;;;7.55;95.51;100766.00;675716;29;4333;-75
2022/03/29 00:51:02;;;;;;;22.17;14.80;;;;;;;7.55;95.45;100767.72;680330;28;1689;-76
2022/03/29 00:51:23;;;;;;;22.90;15.48;;;;;;;7.54;95.83;100766.84;682213;28;1429;-76
2022/03/29 00:51:44;;;;;;;24.08;15.48;;;;;;;7.52;96.17;100763.38;685966;28;1342;-76
2022/03/29 00:52:05;;;;;;;23.20;15.18;;;;;;;7.50;95.83;100755.56;681675;28;1193;-76
2022/03/29 00:52:26;;;;;;;25.45;15.43;;;;;;;7.49;96.31;100761.59;680148;28;1641;-76
2022/03/29 00:52:47;;;;;;;24.98;15.98;;;;;;;7.49;95.78;100756.41;679054;28;1533;-75
2022/03/29 00:53:09;;;;;;;23.85;16.35;;;;;;;7.49;95.53;100769.41;683248;28;1483;-76
2022/03/29 00:53:30;;;;;;;27.42;16.08;;;;;;;7.53;95.72;100761.63;680750;28;1690;-76
2022/03/29 00:53:51;;;;;;;26.25;15.18;;;;;;;7.50;95.90;100758.16;682435;28;4299;-76
2022/03/29 00:54:12;;;;;;;24.80;15.45;;;;;;;7.49;96.03;100755.50;682593;28;1303;-76
2022/03/29 00:54:35;;;;;;;23.50;15.30;;;;;;;7.49;95.92;100761.59;681075;28;1978;-76
2022/03/29 00:54:55;;;;;;;22.70;15.55;;;;;;;7.47;96.14;100759.84;679859;28;1117;-76
2022/03/29 00:55:16;;;;;;;23.02;15.50;;;;;;;7.46;96.19;100761.59;674164;29;1414;-75
2022/03/29 00:55:38;;;;;;;24.17;15.43;;;;;;;7.44;96.41;100757.22;676989;28;1403;-77
2022/03/29 00:56:00;;;;;;;25.90;16.23;;;;;;;7.42;96.25;100764.13;680183;28;1901;-76
2022/03/29 00:56:20;;;;;;;23.83;15.38;;;;;;;7.40;96.42;100753.69;680483;28;1590;-76
2022/03/29 00:56:44;;;;;;;26.13;15.25;;;;;;;7.41;96.65;100760.66;680681;28;4326;-76
2022/03/29 00:57:05;;;;;;;24.27;15.48;;;;;;;7.41;96.34;100760.66;682122;28;1575;-77
2022/03/29 00:57:28;;;;;;;26.00;15.52;;;;;;;7.44;95.58;100762.41;684544;28;1701;-76
2022/03/29 00:57:50;;;;;;;27.05;16.08;;;;;;;7.45;95.76;100759.84;682990;28;1741;-76
2022/03/29 00:58:12;;;;;;;26.20;15.18;;;;;;;7.49;94.13;100764.22;685805;28;1792;-76
2022/03/29 00:58:34;;;;;;;22.75;14.40;;;;;;;7.52;94.89;100757.28;683892;28;1520;-76
2022/03/29 00:58:55;;;;;;;22.30;14.40;;;;;;;7.59;94.28;100762.56;684213;28;1518;-76
2022/03/29 00:59:15;;;;;;;22.00;15.07;;;;;;;7.63;94.31;100760.88;684444;28;1657;-76
2022/03/29 00:59:36;;;;;;;22.50;14.20;;;;;;;7.64;94.90;100758.28;684063;28;925;-76
2022/03/29 00:59:56;;;;;;;22.50;14.48;;;;;;;7.66;94.25;100756.53;678807;28;4315;-76
2022/03/29 01:00:17;;;;;;;24.65;15.02;;;;;;;7.68;94.28;100759.16;677436;29;1547;-76
2022/03/29 01:00:38;;;;;;;26.20;15.10;;;;;;;7.65;95.43;100754.78;682212;28;1433;-76
2022/03/29 01:00:58;;;;;;;24.10;14.90;;;;;;;7.66;94.74;100750.47;677221;28;1490;-76
2022/03/29 01:01:19;;;;;;;22.23;14.50;;;;;;;7.75;93.84;100762.69;676774;29;1621;-76
2022/03/29 01:01:39;;;;;;;21.13;13.93;;;;;;;7.79;93.56;100751.44;680780;28;1614;-76
2022/03/29 01:02:00;;;;;;;22.27;14.93;;;;;;;7.76;94.43;100747.09;680806;28;1388;-76
2022/03/29 01:02:21;;;;;;;24.20;15.75;;;;;;;7.74;94.40;100755.72;682542;28;1477;-76
2022/03/29 01:02:43;;;;;;;24.42;14.82;;;;;;;7.71;94.89;100751.38;678735;28;4478;-76
2022/03/29 01:03:04;;;;;;;24.35;15.07;;;;;;;7.66;95.24;100750.47;682659;28;1462;-76
2022/03/29 01:03:25;;;;;;;23.05;14.88;;;;;;;7.64;94.18;100746.97;681231;28;1664;-76
2022/03/29 01:03:46;;;;;;;22.23;14.27;;;;;;;7.64;94.75;100752.19;680722;28;1456;-76
2022/03/29 01:04:07;;;;;;;23.40;14.45;;;;;;;7.63;94.81;100751.31;681267;28;1887;-76
2022/03/29 01:04:27;;;;;;;25.40;15.63;;;;;;;7.65;94.53;100746.13;680704;28;1489;-76
2022/03/29 01:04:48;;;;;;;23.70;15.48;;;;;;;7.64;94.83;100746.97;682478;28;1415;-76
2022/03/29 01:05:08;;;;;;;23.10;15.55;;;;;;;7.63;95.42;100746.13;680369;28;1383;-76
2022/03/29 01:05:31;;;;;;;23.23;14.83;;;;;;;7.63;94.77;100750.47;678555;28;2337;-76
2022/03/29 01:05:52;;;;;;;24.08;14.52;;;;;;;7.62;95.20;100743.50;681022;28;4285;-75
2022/03/29 01:06:16;;;;;;;24.10;15.10;;;;;;;7.60;94.98;100746.09;682317;28;2007;-76
2022/03/29 01:06:39;;;;;;;24.55;15.63;;;;;;;7.58;94.86;100745.19;683783;28;1589;-76
2022/03/29 01:07:00;;;;;;;25.15;15.07;;;;;;;7.58;95.56;100752.16;685552;28;1625;-76
2022/03/29 01:07:21;;;;;;;23.33;14.60;;;;;;;7.55;95.95;100746.91;684871;28;1671;-76
2022/03/29 01:07:41;;;;;;;22.07;14.97;;;;;;;7.53;96.01;100744.28;685005;28;1421;-76
2022/03/29 01:08:02;;;;;;;25.30;15.50;;;;;;;7.53;94.45;100748.63;684426;28;1564;-76
2022/03/29 01:08:24;;;;;;;23.00;14.90;;;;;;;7.56;94.59;100743.44;681536;28;1941;-76
2022/03/29 01:08:45;;;;;;;22.63;14.50;;;;;;;7.58;94.62;100745.19;675823;28;4509;-76
2022/03/29 01:09:05;;;;;;;23.73;14.70;;;;;;;7.59;94.50;100744.34;679694;28;1033;-76
2022/03/29 01:09:30;;;;;;;22.48;14.52;;;;;;;7.64;93.89;100747.88;679803;28;1542;-76
2022/03/29 01:09:50;;;;;;;21.77;13.90;;;;;;;7.69;94.15;100753.09;682243;28;1448;-76
2022/03/29 01:10:11;;;;;;;22.27;14.50;;;;;;;7.71;94.88;100753.13;680829;28;3968;-76
2022/03/29 01:10:31;;;;;;;21.85;14.55;;;;;;;7.72;94.88;100745.31;683182;28;1710;-76
2022/03/29 01:10:53;;;;;;;22.90;14.77;;;;;;;7.70;94.44;100746.16;685528;28;2190;-76
2022/03/29 01:11:15;;;;;;;23.33;14.60;;;;;;;7.73;93.19;100741.84;679908;28;1563;-75
2022/03/29 01:11:36;;;;;;;21.42;13.55;;;;;;;7.81;92.62;100740.19;679098;28;1516;-76
2022/03/29 01:11:57;;;;;;;22.17;14.50;;;;;;;7.88;92.29;100746.31;684292;28;4504;-76
2022/03/29 01:12:17;;;;;;;23.30;14.80;;;;;;;7.91;92.46;100743.72;684464;28;1278;-75
2022/03/29 01:12:38;;;;;;;22.33;14.30;;;;;;;7.89;93.76;100747.19;682316;28;1220;-76
2022/03/29 01:12:59;;;;;;;24.73;14.35;;;;;;;7.84;93.59;100744.56;677647;28;1492;-76
2022/03/29 01:13:19;;;;;;;23.90;14.40;;;;;;;7.84;93.25;100735.00;681090;28;1141;-76
2022/03/29 01:13:41;;;;;;;21.90;14.30;;;;;;;7.82;93.93;100739.34;684009;28;1215;-76
2022/03/29 01:14:02;;;;;;;20.58;14.15;;;;;;;7.77;94.83;100746.22;684730;28;1650;-76
2022/03/29 01:14:25;;;;;;;21.02;13.98;;;;;;;7.75;95.08;100742.72;687073;28;1228;-76
2022/03/29 01:14:47;;;;;;;23.63;14.57;;;;;;;7.72;94.42;100742.72;685373;28;4395;-76
2022/03/29 01:15:10;;;;;;;22.88;14.05;;;;;;;7.70;95.10;100744.44;681193;28;1481;-76
2022/03/29 01:15:34;;;;;;;23.98;14.57;;;;;;;7.64;94.96;100737.47;681572;28;1462;-76
2022/03/29 01:15:55;;;;;;;23.00;14.10;;;;;;;7.61;95.91;100740.00;681768;28;1411;-76
2022/03/29 01:17:38;;;;;;;23.77;14.85;;;;;;;7.47;96.22;100739.03;687312;28;1397;-76
2022/03/29 01:17:59;;;;;;;22.73;14.35;;;;;;;7.45;95.59;100735.56;685871;28;4311;-75
2022/03/29 01:18:20;;;;;;;25.10;14.83;;;;;;;7.42;96.03;100736.41;689149;28;1753;-75
2022/03/29 01:18:40;;;;;;;26.63;15.75;;;;;;;7.41;96.26;100741.59;687192;28;1289;-76
2022/03/29 01:19:07;;;;;;;23.77;15.13;;;;;;;7.41;95.45;100739.84;686207;28;1490;-75
2022/03/29 01:19:30;;;;;;;23.55;14.65;;;;;;;7.45;95.09;100744.22;686546;28;1295;-75
2022/03/29 01:19:53;;;;;;;22.40;15.02;;;;;;;7.48;95.77;100738.19;681338;28;1700;-76
2022/03/29 01:20:18;;;;;;;22.67;14.63;;;;;;;7.45;95.50;100740.75;682840;28;1443;-76
2022/03/29 01:20:42;;;;;;;24.70;14.82;;;;;;;7.43;95.17;100743.31;680107;28;1550;-76
2022/03/29 01:21:04;;;;;;;21.38;14.77;;;;;;;7.44;95.79;100739.88;679486;28;5102;-75
2022/03/29 01:21:32;;;;;;;23.98;14.93;;;;;;;7.44;94.81;100736.41;679487;28;1309;-76
2022/03/29 01:22:03;;;;;;;23.45;14.75;;;;;;;7.50;94.86;100732.13;677433;29;2113;-75
2022/03/29 01:22:24;;;;;;;21.63;14.32;;;;;;;7.57;94.52;100733.03;677687;29;1185;-76
2022/03/29 01:22:47;;;;;;;21.23;14.23;;;;;;;7.62;94.09;100733.97;678915;28;1273;-76
2022/03/29 01:23:08;;;;;;;22.85;14.07;;;;;;;7.67;95.12;100734.03;683129;28;1761;-76
2022/03/29 01:23:29;;;;;;;24.73;14.80;;;;;;;7.61;95.25;100732.22;684785;28;1540;-75
2022/03/29 01:23:49;;;;;;;22.50;14.40;;;;;;;7.57;94.99;100737.38;682393;28;4324;-76
2022/03/29 01:24:11;;;;;;;21.70;14.38;;;;;;;7.59;94.54;100735.69;683327;28;1919;-76
2022/03/29 01:24:34;;;;;;;22.13;14.73;;;;;;;7.57;94.40;100734.78;683948;28;1288;-76
2022/03/29 01:24:55;;;;;;;23.75;14.70;;;;;;;7.57;93.67;100735.63;684845;28;1470;-76
2022/03/29 01:25:18;;;;;;;22.70;14.15;;;;;;;7.59;94.38;100736.53;683788;28;1566;-76
2022/03/29 01:25:39;;;;;;;23.80;14.55;;;;;;;7.58;94.53;100731.31;684184;28;904;-76
2022/03/29 01:26:00;;;;;;;23.38;14.57;;;;;;;7.59;93.92;100744.34;683265;28;1348;-76
2022/03/29 01:26:21;;;;;;;23.65;14.95;;;;;;;7.59;94.38;100733.09;684290;28;1753;-76
2022/03/29 01:26:42;;;;;;;23.73;14.82;;;;;;;7.59;93.97;100743.50;682027;28;5301;-75
2022/03/29 01:27:05;;;;;;;22.73;15.05;;;;;;;7.57;94.53;100732.19;681755;28;1747;-76
2022/03/29 01:27:30;;;;;;;24.98;15.10;;;;;;;7.56;94.46;100733.91;684334;28;1695;-75
2022/03/29 01:27:52;;;;;;;22.52;14.52;;;;;;;7.54;95.22;100726.97;679003;29;1357;-76
2022/03/29 01:28:15;;;;;;;23.83;14.38;;;;;;;7.53;94.11;100733.00;680562;28;1475;-76
2022/03/29 01:28:37;;;;;;;23.30;14.63;;;;;;;7.55;94.41;100726.97;676168;28;1518;-75
2022/03/29 01:28:58;;;;;;;22.48;14.77;;;;;;;7.56;93.60;100730.44;677317;29;5179;-76
2022/03/29 01:29:22;;;;;;;21.20;14.48;;;;;;;7.64;93.19;100724.44;677243;29;1331;-76
2022/03/29 01:29:43;;;;;;;21.20;13.20;;;;;;;7.66;93.85;100732.28;677912;28;4443;-76
2022/03/29 01:30:04;;;;;;;24.10;14.30;;;;;;;7.66;94.09;100729.66;676101;29;1289;-76
2022/03/29 01:30:25;;;;;;;23.92;14.80;;;;;;;7.64;94.80;100726.16;679565;28;1485;-76
2022/03/29 01:30:45;;;;;;;22.70;15.05;;;;;;;7.62;94.75;100727.91;681413;28;1567;-75
2022/03/29 01:31:07;;;;;;;23.50;14.90;;;;;;;7.60;94.03;100725.28;682027;28;1037;-76
2022/03/29 01:31:31;;;;;;;23.02;14.40;;;;;;;7.67;93.49;100726.22;685172;28;1450;-76
2022/03/29 01:31:52;;;;;;;23.38;14.73;;;;;;;7.73;93.15;100726.25;682265;28;1844;-76
2022/03/29 01:32:12;;;;;;;23.37;14.80;;;;;;;7.72;93.85;100728.84;684646;28;1452;-76
2022/03/29 01:32:35;;;;;;;25.98;15.45;;;;;;;7.66;93.93;100721.84;679036;28;1576;-76
2022/03/29 01:32:58;;;;;;;23.92;14.90;;;;;;;7.64;94.27;100729.66;681722;28;4448;-76
2022/03/29 01:33:21;;;;;;;23.38;14.77;;;;;;;7.64;93.44;100721.84;684866;28;1101;-76
2022/03/29 01:33:42;;;;;;;23.67;14.52;;;;;;;7.70;92.87;100727.94;682679;28;972;-76
2022/03/29 01:34:04;;;;;;;23.42;14.07;;;;;;;7.72;92.14;100723.63;682894;28;1692;-76
2022/03/29 01:34:25;;;;;;;23.42;14.35;;;;;;;7.73;92.65;100722.78;683420;28;1619;-76
2022/03/29 01:34:46;;;;;;;23.52;14.90;;;;;;;7.72;92.70;100726.25;682241;28;1195;-76
2022/03/29 01:35:07;;;;;;;24.15;14.52;;;;;;;7.70;92.31;100715.81;680345;28;1368;-76
2022/03/29 01:35:30;;;;;;;23.40;14.73;;;;;;;7.73;91.89;100720.19;683986;28;1268;-76
2022/03/29 01:35:52;;;;;;;23.27;14.75;;;;;;;7.73;92.00;100720.19;677901;28;4415;-76
2022/03/29 01:36:13;;;;;;;23.00;14.73;;;;;;;7.73;92.77;100715.84;683055;28;1489;-76
2022/03/29 01:36:33;;;;;;;22.07;14.60;;;;;;;7.72;92.63;100719.28;683472;28;1440;-76
2022/03/29 01:36:54;;;;;;;24.70;15.32;;;;;;;7.70;92.62;100721.03;681745;28;1286;-76
2022/03/29 01:37:14;;;;;;;23.43;14.53;;;;;;;7.71;92.17;100721.88;681911;28;1583;-76
2022/03/29 01:37:35;;;;;;;23.13;14.23;;;;;;;7.71;91.75;100720.13;681818;28;1514;-76
2022/03/29 01:37:56;;;;;;;24.02;14.90;;;;;;;7.71;92.10;100712.34;682663;28;1306;-75
2022/03/29 01:38:17;;;;;;;21.58;14.63;;;;;;;7.74;92.53;100717.59;684250;28;1093;-75
2022/03/29 01:38:37;;;;;;;24.47;14.33;;;;;;;7.74;91.73;100716.69;682410;28;1362;-76
2022/03/29 01:38:59;;;;;;;25.23;14.90;;;;;;;7.72;92.68;100714.09;683686;28;4442;-76
2022/03/29 01:39:20;;;;;;;24.27;15.45;;;;;;;7.69;93.41;100719.28;684668;28;1470;-76
2022/03/29 01:39:40;;;;;;;24.40;14.82;;;;;;;7.68;92.57;100712.31;685183;28;1375;-75
2022/03/29 01:40:05;;;;;;;22.30;14.23;;;;;;;7.73;92.96;100713.22;683919;28;1325;-76
2022/03/29 01:40:27;;;;;;;24.55;14.68;;;;;;;7.71;93.04;100714.94;677782;29;1447;-76
2022/03/29 01:40:47;;;;;;;24.48;14.90;;;;;;;7.70;93.59;100714.94;681854;28;1368;-76
2022/03/29 01:41:09;;;;;;;24.10;15.20;;;;;;;7.66;93.51;100714.91;682973;28;836;-76